createdAt,value
2018-11-28T00:02:34.280Z,78.40
2018-11-28T00:05:09.205Z,78.40
2018-11-28T00:07:41.393Z,78.50
2018-11-28T00:10:14.683Z,78.60
2018-11-28T00:12:44.890Z,78.50
2018-11-28T00:15:19.615Z,78.50
2018-11-28T00:17:51.174Z,78.50
2018-11-28T00:20:27.342Z,78.50
2018-11-28T00:23:03.235Z,78.40
2018-11-28T00:25:33.555Z,78.20
2018-11-28T00:28:05.967Z,78.30
2018-11-28T00:30:40.782Z,78.30
2018-11-28T00:33:21.124Z,78.50
2018-11-28T00:35:53.809Z,78.30
2018-11-28T00:38:43.256Z,78.00
2018-11-28T00:41:16.825Z,77.90
2018-11-28T00:43:50.074Z,77.80
2018-11-28T00:46:22.509Z,77.80
2018-11-28T00:48:53.947Z,77.90
2018-11-28T00:51:28.263Z,77.90
2018-11-28T00:54:00.887Z,77.90
2018-11-28T00:56:32.118Z,77.90
2018-11-28T00:59:03.600Z,78.10
2018-11-28T01:01:36.154Z,78.10
2018-11-28T01:04:06.406Z,78.20
2018-11-28T01:06:37.125Z,78.20
2018-11-28T01:09:11.071Z,78.30
2018-11-28T01:11:42.229Z,78.50
2018-11-28T01:14:17.019Z,78.50
2018-11-28T01:16:47.346Z,78.70
2018-11-28T01:19:20.148Z,78.50
2018-11-28T01:22:09.608Z,78.00
2018-11-28T01:24:40.824Z,77.50
2018-11-28T01:27:10.616Z,77.40
2018-11-28T01:29:43.009Z,77.50
2018-11-28T01:32:15.040Z,77.70
2018-11-28T01:34:48.151Z,77.80
2018-11-28T01:37:20.673Z,77.70
2018-11-28T01:39:51.806Z,77.70
2018-11-28T01:42:25.007Z,77.60
2018-11-28T01:44:56.940Z,77.50
2018-11-28T01:47:28.176Z,77.30
2018-11-28T01:50:01.556Z,76.90
2018-11-28T01:52:34.944Z,76.50
2018-11-28T01:55:10.775Z,76.20
2018-11-28T01:57:45.864Z,76.20
2018-11-28T02:00:26.832Z,75.90
2018-11-28T02:03:05.410Z,75.60
2018-11-28T02:05:37.262Z,75.60
2018-11-28T02:08:09.031Z,75.60
2018-11-28T02:10:41.237Z,75.00
2018-11-28T02:13:11.236Z,75.00
2018-11-28T02:15:41.759Z,75.00
2018-11-28T02:18:11.966Z,74.90
2018-11-28T02:20:44.914Z,75.20
2018-11-28T02:23:16.481Z,75.40
2018-11-28T02:25:49.214Z,75.20
2018-11-28T02:28:20.236Z,75.60
2018-11-28T02:30:50.650Z,75.90
2018-11-28T02:33:20.669Z,76.30
2018-11-28T02:35:54.825Z,76.40
2018-11-28T02:38:26.476Z,76.80
2018-11-28T02:40:59.590Z,77.00
2018-11-28T02:43:30.101Z,77.40
2018-11-28T02:46:45.948Z,77.60
2018-11-28T02:49:16.635Z,77.70
2018-11-28T02:51:56.162Z,77.90
2018-11-28T02:54:26.165Z,78.10
2018-11-28T02:57:00.950Z,78.10
2018-11-28T02:59:33.549Z,78.30
2018-11-28T03:02:05.323Z,78.10
2018-11-28T03:04:51.804Z,77.90
2018-11-28T03:07:24.204Z,77.80
2018-11-28T03:09:55.512Z,77.50
2018-11-28T03:12:26.469Z,77.50
2018-11-28T03:14:57.117Z,77.40
2018-11-28T03:17:30.750Z,77.50
2018-11-28T03:20:00.571Z,77.30
2018-11-28T03:22:38.129Z,77.40
2018-11-28T03:25:10.932Z,77.50
2018-11-28T03:27:44.157Z,77.60
2018-11-28T03:30:28.327Z,77.80
2018-11-28T03:33:00.213Z,77.80
2018-11-28T03:35:40.810Z,77.70
2018-11-28T03:38:14.396Z,77.70
2018-11-28T03:40:44.931Z,77.50
2018-11-28T03:43:26.052Z,77.50
2018-11-28T03:45:57.700Z,77.70
2018-11-28T03:48:31.066Z,77.90
2018-11-28T03:51:03.507Z,77.90
2018-11-28T03:53:37.302Z,77.90
2018-11-28T03:58:48.696Z,78.00
2018-11-28T04:01:20.401Z,77.90
2018-11-28T04:03:50.527Z,77.60
2018-11-28T04:06:22.670Z,77.30
2018-11-28T04:08:58.540Z,77.00
2018-11-28T04:11:29.169Z,76.90
2018-11-28T04:13:59.328Z,77.00
2018-11-28T04:16:31.722Z,77.10
2018-11-28T04:19:10.753Z,77.10
2018-11-28T04:21:40.977Z,77.00
2018-11-28T04:24:14.299Z,77.00
2018-11-28T04:26:50.328Z,77.00
2018-11-28T04:29:20.843Z,77.20
2018-11-28T04:31:51.288Z,76.90
2018-11-28T04:34:23.352Z,76.80
2018-11-28T04:36:53.364Z,76.70
2018-11-28T04:39:24.658Z,76.40
2018-11-28T04:42:13.946Z,76.20
2018-11-28T04:44:49.812Z,76.30
2018-11-28T04:47:38.347Z,76.20
2018-11-28T04:50:09.685Z,76.30
2018-11-28T04:52:40.900Z,76.30
2018-11-28T04:55:20.843Z,76.30
2018-11-28T04:57:53.451Z,76.30
2018-11-28T05:00:37.492Z,76.30
2018-11-28T05:03:11.554Z,76.20
2018-11-28T05:05:43.142Z,76.10
2018-11-28T05:08:26.322Z,76.00
2018-11-28T05:11:03.104Z,75.90
2018-11-28T05:13:34.681Z,76.00
2018-11-28T05:16:24.769Z,76.00
2018-11-28T05:18:56.049Z,76.10
2018-11-28T05:21:33.037Z,76.20
2018-11-28T05:24:04.270Z,76.50
2018-11-28T05:26:39.360Z,76.80
2018-11-28T05:29:10.932Z,76.90
2018-11-28T05:31:46.414Z,76.90
2018-11-28T05:34:18.650Z,76.70
2018-11-28T05:36:57.434Z,76.60
2018-11-28T05:39:30.505Z,76.60
2018-11-28T05:42:00.120Z,76.70
2018-11-28T05:44:34.528Z,77.00
2018-11-28T05:47:05.385Z,77.50
2018-11-28T05:49:41.579Z,77.70
2018-11-28T05:52:17.856Z,77.90
2018-11-28T05:54:50.525Z,78.00
2018-11-28T05:57:22.170Z,78.20
2018-11-28T05:59:57.523Z,78.10
2018-11-28T06:02:28.249Z,78.30
2018-11-28T06:05:00.240Z,78.30
2018-11-28T06:07:35.568Z,78.40
2018-11-28T06:10:06.084Z,78.50
2018-11-28T06:12:36.326Z,78.40
2018-11-28T06:15:07.410Z,78.40
2018-11-28T06:17:43.151Z,78.30
2018-11-28T06:20:32.823Z,78.80
2018-11-28T06:23:03.381Z,77.90
2018-11-28T06:25:37.103Z,77.90
2018-11-28T06:28:16.534Z,77.80
2018-11-28T06:30:46.889Z,77.70
2018-11-28T06:33:19.629Z,77.60
2018-11-28T06:35:51.837Z,78.10
2018-11-28T06:38:25.919Z,77.20
2018-11-28T06:41:02.888Z,77.20
2018-11-28T06:43:33.928Z,77.10
2018-11-28T06:46:07.440Z,77.10
2018-11-28T06:48:39.167Z,77.10
2018-11-28T06:51:19.682Z,77.00
2018-11-28T06:53:54.248Z,76.90
2018-11-28T06:56:29.885Z,76.90
2018-11-28T06:59:00.939Z,76.80
2018-11-28T07:01:43.967Z,77.60
2018-11-28T07:04:19.669Z,76.90
2018-11-28T07:06:57.522Z,77.00
2018-11-28T07:09:30.689Z,77.00
2018-11-28T07:12:13.303Z,77.10
2018-11-28T07:14:49.542Z,77.10
2018-11-28T07:17:41.417Z,77.20
2018-11-28T07:20:18.200Z,77.50
2018-11-28T07:22:58.158Z,77.40
2018-11-28T07:25:29.849Z,77.60
2018-11-28T07:28:13.263Z,77.60
2018-11-28T07:30:47.499Z,77.70
2018-11-28T07:33:18.552Z,77.80
2018-11-28T07:35:58.717Z,78.00
2018-11-28T07:38:28.548Z,78.20
2018-11-28T07:41:00.285Z,78.20
2018-11-28T07:43:29.510Z,78.40
2018-11-28T07:46:01.935Z,78.50
2018-11-28T07:48:39.992Z,78.60
2018-11-28T07:51:17.389Z,78.70
2018-11-28T07:53:49.358Z,78.60
2018-11-28T07:56:21.425Z,78.80
2018-11-28T07:58:54.928Z,78.80
2018-11-28T08:01:39.752Z,78.70
2018-11-28T08:04:14.905Z,78.50
2018-11-28T08:06:47.255Z,78.60
2018-11-28T08:09:18.483Z,78.60
2018-11-28T08:11:49.834Z,78.90
2018-11-28T08:14:25.329Z,79.10
2018-11-28T08:16:56.500Z,79.20
2018-11-28T08:19:27.986Z,79.30
2018-11-28T08:22:02.901Z,79.50
2018-11-28T08:24:35.138Z,79.40
2018-11-28T08:27:09.095Z,79.50
2018-11-28T08:29:42.104Z,79.60
2018-11-28T08:32:21.417Z,79.60
2018-11-28T08:34:56.221Z,79.60
2018-11-28T08:37:33.208Z,79.70
2018-11-28T08:40:25.096Z,79.80
2018-11-28T08:43:00.205Z,79.80
2018-11-28T08:45:36.188Z,79.70
2018-11-28T08:48:17.585Z,80.40
2018-11-28T08:50:54.504Z,79.30
2018-11-28T08:53:27.098Z,78.30
2018-11-28T08:55:59.111Z,78.30
2018-11-28T08:58:33.215Z,78.10
2018-11-28T09:01:23.782Z,77.80
2018-11-28T09:03:58.958Z,77.80
2018-11-28T09:06:29.411Z,77.30
2018-11-28T09:09:02.544Z,77.50
2018-11-28T09:11:34.430Z,77.40
2018-11-28T09:14:23.788Z,76.60
2018-11-28T09:21:24.645Z,75.90
2018-11-28T09:24:24.487Z,76.30
2018-11-28T09:27:21.002Z,76.50
2018-11-28T09:30:29.416Z,76.50
2018-11-28T09:33:18.314Z,76.90
2018-11-28T09:36:36.140Z,77.20
2018-11-28T09:39:09.796Z,76.80
2018-11-28T09:42:00.247Z,76.50
2018-11-28T09:44:29.585Z,75.90
2018-11-28T09:47:04.732Z,75.90
2018-11-28T09:49:34.708Z,76.00
2018-11-28T09:52:04.203Z,75.40
2018-11-28T09:54:56.833Z,75.20
2018-11-28T09:57:33.237Z,74.50
2018-11-28T10:00:09.953Z,75.00
2018-11-28T10:03:06.844Z,74.80
2018-11-28T10:06:05.736Z,75.00
2018-11-28T10:08:59.594Z,74.70
2018-11-28T10:11:51.373Z,75.20
2018-11-28T10:14:43.771Z,74.50
2018-11-28T10:17:42.713Z,74.90
2018-11-28T10:20:35.056Z,74.80
2018-11-28T10:23:25.832Z,74.70
2018-11-28T10:26:18.815Z,74.70
2018-11-28T10:29:09.183Z,74.80
2018-11-28T10:31:51.232Z,74.40
2018-11-28T10:34:33.502Z,74.50
2018-11-28T10:37:28.337Z,74.50
2018-11-28T10:40:10.007Z,74.70
2018-11-28T10:42:51.580Z,74.70
2018-11-28T10:45:36.217Z,73.70
2018-11-28T10:48:12.198Z,73.60
2018-11-28T10:50:46.984Z,73.80
2018-11-28T10:53:38.804Z,74.30
2018-11-28T10:56:30.519Z,73.70
2018-11-28T10:59:29.087Z,73.90
2018-11-28T11:02:43.707Z,73.10
2018-11-28T11:05:54.844Z,73.50
2018-11-28T11:08:28.526Z,72.70
2018-11-28T11:11:33.876Z,73.10
2018-11-28T11:14:52.264Z,73.20
2018-11-28T11:17:43.669Z,72.20
2018-11-28T11:20:28.282Z,72.20
2018-11-28T11:23:08.315Z,72.40
2018-11-28T11:25:51.857Z,72.20
2018-11-28T11:28:41.792Z,71.80
2018-11-28T11:31:20.534Z,71.20
2018-11-28T11:34:01.906Z,69.50
2018-11-28T11:40:01.092Z,69.90
2018-11-28T11:42:35.418Z,70.00
2018-11-28T11:45:31.637Z,69.80
2018-11-28T11:48:14.336Z,68.70
2018-11-28T11:50:51.200Z,67.90
2018-11-28T11:53:29.160Z,68.00
2018-11-28T11:56:02.178Z,68.50
2018-11-28T11:58:48.325Z,69.80
2018-11-28T12:01:28.669Z,69.40
2018-11-28T12:04:17.726Z,69.60
2018-11-28T12:07:12.398Z,69.70
2018-11-28T12:09:57.162Z,68.70
2018-11-28T12:12:38.650Z,68.30
2018-11-28T12:15:32.672Z,68.20
2018-11-28T12:18:11.319Z,68.80
2018-11-28T12:21:03.623Z,68.40
2018-11-28T12:23:53.953Z,67.70
2018-11-28T12:26:44.637Z,67.10
2018-11-28T12:29:37.157Z,66.60
2018-11-28T12:32:22.908Z,66.70
2018-11-28T12:34:58.314Z,66.50
2018-11-28T12:37:35.547Z,67.10
2018-11-28T12:40:19.094Z,66.80
2018-11-28T12:43:15.268Z,66.90
2018-11-28T12:45:51.972Z,67.40
2018-11-28T12:48:25.276Z,67.00
2018-11-28T12:51:14.642Z,66.40
2018-11-28T12:53:49.615Z,67.80
2018-11-28T12:56:29.735Z,68.80
2018-11-28T12:59:01.682Z,67.70
2018-11-28T13:01:36.956Z,66.70
2018-11-28T13:04:11.079Z,68.00
2018-11-28T13:06:41.671Z,68.00
2018-11-28T13:09:12.986Z,66.90
2018-11-28T13:11:44.981Z,67.10
2018-11-28T13:14:17.025Z,67.50
2018-11-28T13:16:51.052Z,68.30
2018-11-28T13:19:21.253Z,67.30
2018-11-28T13:21:52.286Z,67.10
2018-11-28T13:24:34.355Z,66.90
2018-11-28T13:27:10.947Z,68.00
2018-11-28T13:29:43.632Z,67.80
2018-11-28T13:32:20.508Z,68.60
2018-11-28T13:34:57.953Z,68.70
2018-11-28T13:37:37.200Z,67.50
2018-11-28T13:40:18.100Z,68.30
2018-11-28T13:43:00.171Z,68.30
2018-11-28T13:45:36.344Z,67.70
2018-11-28T13:48:11.341Z,66.90
2018-11-28T13:50:49.676Z,66.60
2018-11-28T13:53:18.611Z,67.00
2018-11-28T13:58:35.880Z,66.90
2018-11-28T14:01:08.311Z,67.60
2018-11-28T14:03:40.984Z,68.40
2018-11-28T14:06:11.427Z,67.90
2018-11-28T14:08:55.843Z,67.10
2018-11-28T14:11:25.951Z,66.80
2018-11-28T14:14:02.111Z,67.10
2018-11-28T14:16:58.067Z,66.80
2018-11-28T14:19:53.651Z,66.40
2018-11-28T14:22:34.647Z,67.10
2018-11-28T14:25:12.265Z,67.50
2018-11-28T14:28:00.621Z,67.30
2018-11-28T14:30:45.010Z,67.10
2018-11-28T14:33:34.572Z,67.70
2018-11-28T14:36:21.968Z,68.10
2018-11-28T14:39:06.045Z,67.60
2018-11-28T14:41:50.995Z,68.10
2018-11-28T14:44:21.375Z,68.10
2018-11-28T14:46:56.711Z,67.60
2018-11-28T14:49:31.972Z,67.50
2018-11-28T14:52:11.137Z,67.40
2018-11-28T14:54:59.484Z,68.00
2018-11-28T14:57:49.400Z,68.30
2018-11-28T15:00:39.951Z,67.70
2018-11-28T15:03:40.275Z,68.30
2018-11-28T15:06:42.168Z,67.60
2018-11-28T15:09:38.658Z,68.00
2018-11-28T15:12:40.014Z,68.50
2018-11-28T15:15:16.774Z,68.70
2018-11-28T15:18:06.730Z,68.70
2018-11-28T15:21:00.939Z,68.60
2018-11-28T15:23:43.277Z,69.10
2018-11-28T15:26:21.645Z,70.40
2018-11-28T15:28:56.148Z,70.60
2018-11-28T15:31:43.792Z,70.80
2018-11-28T15:34:16.171Z,71.30
2018-11-28T15:37:09.326Z,71.50
2018-11-28T15:40:01.459Z,72.00
2018-11-28T15:42:49.210Z,72.20
2018-11-28T15:45:53.971Z,72.70
2018-11-28T15:48:48.017Z,73.10
2018-11-28T15:51:35.095Z,73.50
2018-11-28T15:54:13.191Z,73.80
2018-11-28T15:56:42.691Z,73.60
2018-11-28T15:59:13.159Z,73.70
2018-11-28T16:01:43.479Z,73.90
2018-11-28T16:04:26.793Z,74.00
2018-11-28T16:10:57.437Z,74.10
2018-11-28T16:13:34.855Z,74.10
2018-11-28T16:16:06.886Z,74.40
2018-11-28T16:18:37.428Z,74.20
2018-11-28T16:21:13.371Z,74.20
2018-11-28T16:23:43.570Z,74.10
2018-11-28T16:26:16.816Z,74.40
2018-11-28T16:28:49.066Z,74.60
2018-11-28T16:31:19.234Z,74.40
2018-11-28T16:33:51.164Z,74.70
2018-11-28T16:36:33.981Z,74.70
2018-11-28T16:39:04.743Z,74.80
2018-11-28T16:41:42.233Z,75.00
2018-11-28T16:44:16.097Z,75.20
2018-11-28T16:47:18.052Z,75.20
2018-11-28T16:49:52.841Z,75.30
2018-11-28T16:52:24.673Z,75.40
2018-11-28T16:55:14.212Z,75.50
2018-11-28T16:57:45.614Z,75.70
2018-11-28T17:00:19.939Z,75.80
2018-11-28T17:02:51.538Z,75.80
2018-11-28T17:05:22.556Z,75.90
2018-11-28T17:07:53.894Z,76.00
2018-11-28T17:10:33.354Z,75.90
2018-11-28T17:13:04.961Z,76.00
2018-11-28T17:15:37.543Z,75.90
2018-11-28T17:18:12.251Z,75.90
2018-11-28T17:20:45.969Z,76.00
2018-11-28T17:23:18.222Z,76.00
2018-11-28T17:25:53.703Z,75.90
2018-11-28T17:28:24.486Z,76.20
2018-11-28T17:31:02.187Z,76.30
2018-11-28T17:33:34.937Z,76.30
2018-11-28T17:36:15.388Z,76.40
2018-11-28T17:38:47.560Z,76.30
2018-11-28T17:41:24.236Z,76.30
2018-11-28T17:43:58.102Z,76.40
2018-11-28T17:46:40.727Z,76.30
2018-11-28T17:49:10.792Z,76.40
2018-11-28T17:51:42.930Z,76.30
2018-11-28T17:54:16.735Z,76.30
2018-11-28T17:56:52.638Z,76.20
2018-11-28T17:59:47.541Z,76.20
2018-11-28T18:02:17.951Z,76.30
2018-11-28T18:04:50.071Z,76.20
2018-11-28T18:07:22.200Z,76.20
2018-11-28T18:09:55.769Z,76.10
2018-11-28T18:12:28.526Z,76.10
2018-11-28T18:14:59.088Z,76.00
2018-11-28T18:17:33.841Z,76.00
2018-11-28T18:20:20.074Z,76.10
2018-11-28T18:22:54.593Z,75.90
2018-11-28T18:25:27.286Z,75.50
2018-11-28T18:28:20.270Z,75.60
2018-11-28T18:30:58.654Z,75.70
2018-11-28T18:33:30.305Z,75.70
2018-11-28T18:36:01.630Z,75.50
2018-11-28T18:38:33.309Z,75.60
2018-11-28T18:41:05.492Z,75.80
2018-11-28T18:43:40.024Z,75.90
2018-11-28T18:46:11.825Z,76.10
2018-11-28T18:48:44.792Z,76.40
2018-11-28T18:51:16.777Z,76.60
2018-11-28T18:53:51.658Z,76.70
2018-11-28T18:56:23.004Z,76.70
2018-11-28T18:58:54.026Z,76.70
2018-11-28T19:01:25.196Z,76.30
2018-11-28T19:03:56.126Z,76.10
2018-11-28T19:06:31.352Z,76.00
2018-11-28T19:09:09.678Z,76.00
2018-11-28T19:11:40.056Z,76.20
2018-11-28T19:14:13.580Z,76.30
2018-11-28T19:16:50.038Z,76.50
2018-11-28T19:19:20.419Z,76.70
2018-11-28T19:21:55.737Z,77.00
2018-11-28T19:24:28.106Z,77.10
2018-11-28T19:27:04.328Z,77.20
2018-11-28T19:29:35.668Z,77.30
2018-11-28T19:32:06.365Z,77.30
2018-11-28T19:34:45.384Z,77.20
2018-11-28T19:37:18.760Z,77.10
2018-11-28T19:39:51.100Z,77.10
2018-11-28T19:42:28.710Z,77.00
2018-11-28T19:45:20.485Z,76.90
2018-11-28T19:48:01.624Z,77.00
2018-11-28T19:50:34.348Z,76.90
2018-11-28T19:53:10.288Z,77.00
2018-11-28T19:55:44.139Z,77.00
2018-11-28T20:04:50.092Z,77.10
2018-11-28T20:07:24.637Z,77.20
2018-11-28T20:09:58.652Z,77.30
2018-11-28T20:12:30.387Z,77.40
2018-11-28T20:15:02.347Z,77.30
2018-11-28T20:17:34.950Z,77.30
2018-11-28T20:20:15.086Z,77.20
2018-11-28T20:22:45.431Z,77.20
2018-11-28T20:25:20.335Z,77.20
2018-11-28T20:27:59.342Z,77.10
2018-11-28T20:30:37.442Z,77.10
2018-11-28T20:33:07.861Z,77.00
2018-11-28T20:35:42.596Z,76.80
2018-11-28T20:38:29.379Z,77.70
2018-11-28T20:41:01.150Z,76.90
2018-11-28T20:43:36.157Z,76.80
2018-11-28T20:46:14.269Z,76.80
2018-11-28T20:48:45.668Z,76.70
2018-11-28T20:51:17.970Z,76.60
2018-11-28T20:53:52.060Z,76.70
2018-11-28T20:56:23.746Z,76.50
2018-11-28T20:59:10.475Z,76.30
2018-11-28T21:01:42.896Z,76.20
2018-11-28T21:04:13.425Z,76.10
2018-11-28T21:06:48.913Z,76.00
2018-11-28T21:09:19.489Z,76.00
2018-11-28T21:11:49.772Z,76.30
2018-11-28T21:14:24.179Z,76.20
2018-11-28T21:16:58.385Z,76.10
2018-11-28T21:19:35.341Z,76.20
2018-11-28T21:22:08.403Z,76.50
2018-11-28T21:24:41.897Z,76.70
2018-11-28T21:27:12.316Z,76.90
2018-11-28T21:29:48.135Z,77.10
2018-11-28T21:32:20.975Z,77.20
2018-11-28T21:34:51.964Z,77.30
2018-11-28T21:37:25.431Z,77.50
2018-11-28T21:39:58.338Z,77.50
2018-11-28T21:42:30.790Z,77.60
2018-11-28T21:45:02.394Z,77.60
2018-11-28T21:47:33.911Z,77.60
2018-11-28T21:50:18.815Z,77.50
2018-11-28T21:52:50.270Z,77.30
2018-11-28T21:55:25.034Z,77.00
2018-11-28T21:57:58.456Z,76.90
2018-11-28T22:00:30.776Z,76.60
2018-11-28T22:03:00.826Z,76.50
2018-11-28T22:05:32.820Z,76.30
2018-11-28T22:08:08.104Z,76.10
2018-11-28T22:10:39.526Z,76.00
2018-11-28T22:13:36.676Z,75.80
2018-11-28T22:16:14.364Z,75.80
2018-11-28T22:18:46.868Z,75.90
2018-11-28T22:21:19.192Z,76.10
2018-11-28T22:24:09.313Z,76.20
2018-11-28T22:26:53.304Z,76.20
2018-11-28T22:29:24.229Z,76.40
2018-11-28T22:32:16.074Z,76.70
2018-11-28T22:34:48.186Z,76.80
2018-11-28T22:37:29.287Z,76.90
2018-11-28T22:40:04.587Z,77.00
2018-11-28T22:42:39.645Z,77.00
2018-11-28T22:45:19.520Z,77.00
2018-11-28T22:47:51.781Z,76.90
2018-11-28T22:50:22.598Z,76.90
2018-11-28T22:52:55.671Z,76.80
2018-11-28T22:55:30.893Z,76.80
2018-11-28T22:58:02.930Z,76.80
2018-11-28T23:00:55.559Z,76.80
2018-11-28T23:03:25.889Z,76.90
2018-11-28T23:05:59.012Z,76.90
2018-11-28T23:08:31.643Z,77.00
2018-11-28T23:11:02.738Z,77.10
2018-11-28T23:13:34.090Z,77.10
2018-11-28T23:16:15.935Z,77.20
2018-11-28T23:18:47.852Z,77.20
2018-11-28T23:21:20.533Z,77.10
2018-11-28T23:23:56.575Z,77.10
2018-11-28T23:26:31.534Z,77.10
2018-11-28T23:29:03.701Z,77.00
2018-11-28T23:31:43.724Z,77.00
2018-11-28T23:34:16.323Z,76.90
2018-11-28T23:36:54.152Z,76.90
2018-11-28T23:39:29.838Z,77.00
2018-11-28T23:42:06.086Z,77.00
2018-11-28T23:44:38.673Z,77.00
2018-11-28T23:47:08.877Z,77.00
2018-11-28T23:49:39.361Z,77.00
2018-11-28T23:52:11.817Z,77.10
2018-11-28T23:54:43.859Z,77.10
2018-11-28T23:57:13.352Z,77.20
2018-11-28T23:59:45.291Z,77.30
